AirNav   Bose ProFlight Series 2 Headset
 
 1872 users online  

48PN Wilson Heliport
Spring Grove, Pennsylvania, USA

GOING TO SPRING GROVE?


FAA INFORMATION EFFECTIVE 02 JANUARY 2020

Location

FAA Identifier: 48PN
Lat/Long: 39-54-15.1200N 076-54-51.1200W
39-54.252000N 076-54.852000W
39.9042000,-76.9142000
(estimated)
Elevation: 577 ft. / 176 m (estimated)
From city: 4 miles NW of SPRING GROVE, PA
Time zone: UTC -5 (UTC -4 during Daylight Saving Time)
Zip code: 17364

Heliport Operations

Heliport use: Private use. Permission required prior to landing
Activation date: 09/2010
Control tower: no
ARTCC: NEW YORK CENTER
FSS: WILLIAMSPORT FLIGHT SERVICE STATION
Attendance: DAWN-DUSK
Segmented circle: no

Heliport Communications

WX ASOS at THV (2.0 nm E): 119.275 (717-792-5529)
WX AWOS-3 at DMW (18 nm S): 121.25 (410-876-1281)
WX ASOS at MDT (19 nm N): 118.8 (717-944-1372)
WX ASOS at CXY (19 nm N): PHONE 717-770-0880

Nearby radio navigation aids

VOR radial/distance  VOR name  Freq  Var
EMIr015/24.7WESTMINSTER VORTAC117.9008W
HARr173/24.9HARRISBURG VORTAC112.5010W
LRPr255/31.4LANCASTER VOR/DME117.3009W
FDKr044/(36.4)FREDERICK VOR109.0008W

 
NDB name  Hdg/Dist  Freq  Var  ID
BELLGROVE217/35.932810WBZJ -... --.. .---
ELLICOTT001/37.637111WFND ..-. -. -..

Heliport Services

Runway Information

Helipad H1

Dimensions: 60 x 60 ft. / 18 x 18 m
Surface: turf
Traffic pattern: leftleft
Obstructions: trees

Heliport Ownership and Management from official FAA records

Ownership: Privately-owned
Owner: JAMES WILSON
408 LAKE RD
SPRING GROVE, PA 17362
Phone 717-577-0440
Manager: JIM WILSON
408 LAKE RD
SPRING GROVE, PA 17362
Phone 717-577-0440

Heliport Operational Statistics

Aircraft based on the field: 2
Helicopters: 2
    

Additional Remarks

RWY H1 22 FT PWR LINES 320 FT WEST OF HELIPORT.
FOR CD CTC HARRISBURG APCH AT 800-932-0712.

Instrument Procedures

There are no published instrument procedures at 48PN.

Some nearby airports with instrument procedures:

KTHV - York Airport (2 nm E)
W05 - Gettysburg Regional Airport (17 nm W)
KDMW - Carroll County Regional Airport/Jack B Poage Field (18 nm S)
KMDT - Harrisburg International Airport (19 nm N)
KCXY - Capital City Airport (19 nm N)
N71 - Donegal Springs Airpark (19 nm NE)
 
Loc | Ops | Rwys | IFR | FBO | Links
Com | Nav | Svcs | Stats | Notes
Aerial photo
No photo
 
Sectional chart

 
Airport distance calculator
Flying to Wilson Heliport? Find the distance to fly.

From to 48PN

Sunrise and sunset
Times for 21-Jan-2020
 Local
(UTC-5)
 Zulu
(UTC)
Morning civil twilight06:5611:56
Sunrise07:2612:26
Sunset17:1322:13
Evening civil twilight17:4222:42

Current date and time
Zulu (UTC)  21-Jan-2020 14:22:21
Local (UTC-5)  21-Jan-2020 09:22:21
 
METAR
KTHV 
2nm NE 
211353Z AUTO 28006KT 10SM CLR M06/M12 A3050 RMK AO2 SLP340 T10561117
KDMW 
18nm S 
211345Z AUTO 30005KT 10SM CLR M06/M11 A3048 RMK AO2
KCXY 
19nm N 
211356Z 27005KT 10SM CLR M03/M11 A3052 RMK AO2 SLP341 T10331111
KMDT 
19nm N 
211356Z 32009KT 10SM CLR M04/M11 A3051 RMK AO2 SLP336 T10391111
TAF
KMDT 
19nm N 
211136Z 2112/2212 32008KT P6SM SKC FM211700 32008KT P6SM SKC FM220000 31005KT P6SM BKN250
NOTAMs
Click for the latest NOTAMs
NOTAMs are issued by the DoD/FAA and will open in a separate window not controlled by AirNav.

 

 
 

Would you like to see your business listed on this page?

 If your business provides an interesting product or service to pilots, flight crews, aircraft, or users of the Wilson Heliport, you should consider listing it here.  To start the listing process, click on the button below
 
Add a business
 

Other Pages about Wilson Heliport

Update a link
 
Copyright © AirNav, LLC. All rights reserved. Privacy Policy  Contact